sensor_id;sensor_type;location;lat;lon;timestamp;pressure;altitude;pressure_sealevel;temperature;humidity
51759;BME280;66684;47.568;18.734;2023-03-24T00:01:16;99242.03;;;7.99;100.00
51759;BME280;66684;47.568;18.734;2023-03-24T00:03:42;99234.38;;;8.00;100.00
51759;BME280;66684;47.568;18.734;2023-03-24T00:06:13;99234.66;;;8.06;100.00
51759;BME280;66684;47.568;18.734;2023-03-24T00:08:40;99238.44;;;8.15;100.00
51759;BME280;66684;47.568;18.734;2023-03-24T00:11:10;99235.12;;;8.17;100.00
51759;BME280;66684;47.568;18.734;2023-03-24T00:13:37;99229.78;;;8.13;100.00
51759;BME280;66684;47.568;18.734;2023-03-24T00:16:13;99228.75;;;8.09;100.00
51759;BME280;66684;47.568;18.734;2023-03-24T00:18:41;99217.72;;;8.11;100.00
51759;BME280;66684;47.568;18.734;2023-03-24T00:21:07;99217.13;;;8.17;100.00
51759;BME280;66684;47.568;18.734;2023-03-24T00:23:35;99213.72;;;8.18;100.00
51759;BME280;66684;47.568;18.734;2023-03-24T00:26:04;99206.31;;;8.26;100.00
51759;BME280;66684;47.568;18.734;2023-03-24T00:28:31;99206.72;;;8.35;100.00
51759;BME280;66684;47.568;18.734;2023-03-24T00:30:59;99215.59;;;8.42;100.00
51759;BME280;66684;47.568;18.734;2023-03-24T00:33:27;99214.94;;;8.46;100.00
51759;BME280;66684;47.568;18.734;2023-03-24T00:35:58;99207.25;;;8.47;100.00
51759;BME280;66684;47.568;18.734;2023-03-24T00:38:24;99206.88;;;8.38;100.00
51759;BME280;66684;47.568;18.734;2023-03-24T00:40:51;99198.00;;;8.51;100.00
51759;BME280;66684;47.568;18.734;2023-03-24T00:43:18;99198.19;;;8.55;100.00
51759;BME280;66684;47.568;18.734;2023-03-24T00:45:44;99192.22;;;8.56;100.00
51759;BME280;66684;47.568;18.734;2023-03-24T00:48:15;99193.97;;;8.57;100.00
51759;BME280;66684;47.568;18.734;2023-03-24T00:50:50;99187.31;;;8.62;100.00
51759;BME280;66684;47.568;18.734;2023-03-24T00:53:17;99194.34;;;8.67;100.00
51759;BME280;66684;47.568;18.734;2023-03-24T00:55:44;99184.19;;;8.70;100.00
51759;BME280;66684;47.568;18.734;2023-03-24T00:58:13;99180.53;;;8.64;100.00
51759;BME280;66684;47.568;18.734;2023-03-24T01:00:52;99175.63;;;8.71;99.89
51759;BME280;66684;47.568;18.734;2023-03-24T01:03:20;99162.75;;;8.71;99.81
51759;BME280;66684;47.568;18.734;2023-03-24T01:05:47;99162.19;;;8.78;99.22
51759;BME280;66684;47.568;18.734;2023-03-24T01:08:15;99161.50;;;8.82;98.80
51759;BME280;66684;47.568;18.734;2023-03-24T01:10:47;99157.84;;;8.77;98.81
51759;BME280;66684;47.568;18.734;2023-03-24T01:13:26;99161.00;;;8.70;99.51
51759;BME280;66684;47.568;18.734;2023-03-24T01:15:53;99164.25;;;8.65;99.85
51759;BME280;66684;47.568;18.734;2023-03-24T01:18:20;99155.59;;;8.63;100.00
51759;BME280;66684;47.568;18.734;2023-03-24T01:20:47;99154.56;;;8.60;100.00
51759;BME280;66684;47.568;18.734;2023-03-24T01:23:20;99148.59;;;8.61;100.00
51759;BME280;66684;47.568;18.734;2023-03-24T01:25:46;99150.00;;;8.74;99.59
51759;BME280;66684;47.568;18.734;2023-03-24T01:28:14;99147.34;;;8.72;99.33
51759;BME280;66684;47.568;18.734;2023-03-24T01:30:42;99149.88;;;8.71;99.69
51759;BME280;66684;47.568;18.734;2023-03-24T01:33:08;99142.97;;;8.70;99.67
51759;BME280;66684;47.568;18.734;2023-03-24T01:35:34;99138.69;;;8.70;99.72
51759;BME280;66684;47.568;18.734;2023-03-24T01:38:05;99141.06;;;8.65;100.00
51759;BME280;66684;47.568;18.734;2023-03-24T01:40:34;99135.81;;;8.62;100.00
51759;BME280;66684;47.568;18.734;2023-03-24T01:43:00;99139.47;;;8.68;100.00
51759;BME280;66684;47.568;18.734;2023-03-24T01:48:47;99136.31;;;8.75;99.66
51759;BME280;66684;47.568;18.734;2023-03-24T01:51:35;99127.75;;;8.76;99.39
51759;BME280;66684;47.568;18.734;2023-03-24T01:56:35;99141.31;;;8.93;98.09
51759;BME280;66684;47.568;18.734;2023-03-24T01:59:06;99133.50;;;8.91;98.30
51759;BME280;66684;47.568;18.734;2023-03-24T02:01:34;99138.66;;;8.91;97.86
51759;BME280;66684;47.568;18.734;2023-03-24T02:04:03;99131.91;;;8.93;97.93
51759;BME280;66684;47.568;18.734;2023-03-24T02:06:36;99136.47;;;9.00;97.14
51759;BME280;66684;47.568;18.734;2023-03-24T02:09:07;99130.25;;;8.95;97.63
51759;BME280;66684;47.568;18.734;2023-03-24T02:11:34;99134.56;;;8.96;97.76
51759;BME280;66684;47.568;18.734;2023-03-24T02:14:02;99131.75;;;8.90;98.25
51759;BME280;66684;47.568;18.734;2023-03-24T02:41:38;99101.13;;;8.54;100.00
51759;BME280;66684;47.568;18.734;2023-03-24T02:49:59;99095.72;;;8.48;100.00
51759;BME280;66684;47.568;18.734;2023-03-24T02:58:03;99081.81;;;8.43;100.00
51759;BME280;66684;47.568;18.734;2023-03-24T03:03:02;99078.41;;;8.44;100.00
51759;BME280;66684;47.568;18.734;2023-03-24T03:05:32;99088.56;;;8.41;100.00
51759;BME280;66684;47.568;18.734;2023-03-24T03:08:00;99081.81;;;8.43;100.00
51759;BME280;66684;47.568;18.734;2023-03-24T03:10:37;99074.88;;;8.42;100.00
51759;BME280;66684;47.568;18.734;2023-03-24T03:13:16;99080.94;;;8.43;100.00
51759;BME280;66684;47.568;18.734;2023-03-24T03:15:47;99082.06;;;8.49;100.00
51759;BME280;66684;47.568;18.734;2023-03-24T03:18:36;99077.78;;;8.50;100.00
51759;BME280;66684;47.568;18.734;2023-03-24T03:21:09;99083.28;;;8.59;99.51
51759;BME280;66684;47.568;18.734;2023-03-24T03:23:43;99077.41;;;8.61;99.27
51759;BME280;66684;47.568;18.734;2023-03-24T03:26:16;99078.34;;;8.63;98.99
51759;BME280;66684;47.568;18.734;2023-03-24T03:28:49;99073.75;;;8.56;99.22
51759;BME280;66684;47.568;18.734;2023-03-24T03:31:21;99076.13;;;8.31;100.00
51759;BME280;66684;47.568;18.734;2023-03-24T03:36:23;99073.28;;;8.44;99.94
51759;BME280;66684;47.568;18.734;2023-03-24T03:39:18;99079.25;;;8.43;99.81
51759;BME280;66684;47.568;18.734;2023-03-24T03:41:47;99082.06;;;8.49;99.61
51759;BME280;66684;47.568;18.734;2023-03-24T03:44:13;99076.44;;;8.59;98.56
51759;BME280;66684;47.568;18.734;2023-03-24T03:46:38;99073.06;;;8.60;98.21
51759;BME280;66684;47.568;18.734;2023-03-24T03:49:06;99066.62;;;8.72;97.28
51759;BME280;66684;47.568;18.734;2023-03-24T03:51:33;99061.56;;;8.52;98.54
51759;BME280;66684;47.568;18.734;2023-03-24T03:54:02;99061.00;;;8.59;98.29
51759;BME280;66684;47.568;18.734;2023-03-24T03:56:32;99060.56;;;8.70;97.24
51759;BME280;66684;47.568;18.734;2023-03-24T03:58:59;99050.13;;;8.67;96.90
51759;BME280;66684;47.568;18.734;2023-03-24T04:01:28;99057.16;;;8.71;96.66
51759;BME280;66684;47.568;18.734;2023-03-24T04:04:08;99057.69;;;8.62;96.85
51759;BME280;66684;47.568;18.734;2023-03-24T04:06:44;99063.00;;;8.67;96.46
51759;BME280;66684;47.568;18.734;2023-03-24T04:10:20;99063.06;;;8.68;96.36
51759;BME280;66684;47.568;18.734;2023-03-24T04:12:42;99056.22;;;8.69;96.44
51759;BME280;66684;47.568;18.734;2023-03-24T04:20:33;99068.47;;;8.53;97.29
51759;BME280;66684;47.568;18.734;2023-03-24T04:23:07;99067.78;;;8.57;97.28
51759;BME280;66684;47.568;18.734;2023-03-24T04:25:48;99059.50;;;8.64;96.94
51759;BME280;66684;47.568;18.734;2023-03-24T04:28:26;99064.69;;;8.66;96.88
51759;BME280;66684;47.568;18.734;2023-03-24T04:33:49;99062.06;;;8.64;96.96
51759;BME280;66684;47.568;18.734;2023-03-24T04:36:38;99065.56;;;8.67;97.04
51759;BME280;66684;47.568;18.734;2023-03-24T04:39:15;99068.31;;;8.71;96.84
51759;BME280;66684;47.568;18.734;2023-03-24T04:41:43;99062.53;;;8.77;96.38
51759;BME280;66684;47.568;18.734;2023-03-24T04:44:10;99059.78;;;8.72;96.32
51759;BME280;66684;47.568;18.734;2023-03-24T04:46:37;99062.31;;;8.71;96.42
51759;BME280;66684;47.568;18.734;2023-03-24T04:49:04;99062.19;;;8.68;96.42
51759;BME280;66684;47.568;18.734;2023-03-24T04:51:30;99065.56;;;8.67;96.46
51759;BME280;66684;47.568;18.734;2023-03-24T04:53:57;99064.81;;;8.69;96.61
51759;BME280;66684;47.568;18.734;2023-03-24T04:56:42;99069.78;;;8.64;97.04
51759;BME280;66684;47.568;18.734;2023-03-24T04:59:12;99068.97;;;8.65;97.11
51759;BME280;66684;47.568;18.734;2023-03-24T05:01:40;99074.00;;;8.62;97.30
51759;BME280;66684;47.568;18.734;2023-03-24T05:04:06;99075.75;;;8.63;97.23
51759;BME280;66684;47.568;18.734;2023-03-24T05:06:33;99074.94;;;8.64;97.11
51759;BME280;66684;47.568;18.734;2023-03-24T05:08:59;99065.56;;;8.67;97.06
51759;BME280;66684;47.568;18.734;2023-03-24T05:11:26;99069.78;;;8.64;97.29
51759;BME280;66684;47.568;18.734;2023-03-24T05:13:52;99068.97;;;8.65;97.50
51759;BME280;66684;47.568;18.734;2023-03-24T05:16:19;99069.16;;;8.70;97.52
51759;BME280;66684;47.568;18.734;2023-03-24T05:18:45;99063.00;;;8.67;97.88
51759;BME280;66684;47.568;18.734;2023-03-24T05:21:11;99065.94;;;8.76;97.60
51759;BME280;66684;47.568;18.734;2023-03-24T05:23:37;99076.28;;;8.77;97.67
51759;BME280;66684;47.568;18.734;2023-03-24T05:26:04;99079.00;;;8.80;97.98
51759;BME280;66684;47.568;18.734;2023-03-24T05:28:30;99083.91;;;8.74;98.14
51759;BME280;66684;47.568;18.734;2023-03-24T05:30:56;99083.59;;;8.67;98.35
51759;BME280;66684;47.568;18.734;2023-03-24T05:33:22;99090.81;;;8.54;98.26
51759;BME280;66684;47.568;18.734;2023-03-24T05:35:48;99078.03;;;8.56;98.02
51759;BME280;66684;47.568;18.734;2023-03-24T05:38:14;99091.16;;;8.62;97.70
51759;BME280;66684;47.568;18.734;2023-03-24T05:40:40;99094.47;;;8.59;98.31
51759;BME280;66684;47.568;18.734;2023-03-24T05:43:06;99099.63;;;8.59;98.43
51759;BME280;66684;47.568;18.734;2023-03-24T05:45:33;99094.97;;;8.72;98.00
51759;BME280;66684;47.568;18.734;2023-03-24T05:48:00;99102.00;;;8.76;98.22
51759;BME280;66684;47.568;18.734;2023-03-24T05:50:25;99100.00;;;8.69;99.83
51759;BME280;66684;47.568;18.734;2023-03-24T05:52:51;99106.66;;;8.63;100.00
51759;BME280;66684;47.568;18.734;2023-03-24T05:55:18;99108.91;;;8.77;100.00
51759;BME280;66684;47.568;18.734;2023-03-24T05:57:44;99105.75;;;8.84;100.00
51759;BME280;66684;47.568;18.734;2023-03-24T06:00:11;99100.25;;;8.97;98.94
51759;BME280;66684;47.568;18.734;2023-03-24T06:02:45;99108.13;;;9.00;99.13
51759;BME280;66684;47.568;18.734;2023-03-24T06:05:11;99105.12;;;9.12;99.10
51759;BME280;66684;47.568;18.734;2023-03-24T06:07:38;99107.16;;;9.21;98.76
51759;BME280;66684;47.568;18.734;2023-03-24T06:10:08;99107.69;;;9.34;98.19
51759;BME280;66684;47.568;18.734;2023-03-24T06:12:36;99112.38;;;9.44;98.15
51759;BME280;66684;47.568;18.734;2023-03-24T06:15:03;99111.22;;;9.60;95.69
51759;BME280;66684;47.568;18.734;2023-03-24T06:17:30;99110.13;;;9.78;94.27
51759;BME280;66684;47.568;18.734;2023-03-24T06:19:56;99110.59;;;9.91;93.07
51759;BME280;66684;47.568;18.734;2023-03-24T06:22:38;99103.25;;;10.02;92.75
51759;BME280;66684;47.568;18.734;2023-03-24T06:25:04;99100.47;;;10.21;91.45
51759;BME280;66684;47.568;18.734;2023-03-24T06:27:31;99095.53;;;10.27;89.60
51759;BME280;66684;47.568;18.734;2023-03-24T06:29:57;99094.19;;;10.39;89.67
51759;BME280;66684;47.568;18.734;2023-03-24T06:32:25;99093.63;;;10.47;89.48
51759;BME280;66684;47.568;18.734;2023-03-24T06:34:51;99098.59;;;10.68;88.36
51759;BME280;66684;47.568;18.734;2023-03-24T06:37:18;99094.00;;;10.87;88.27
51759;BME280;66684;47.568;18.734;2023-03-24T06:39:45;99093.00;;;11.10;88.37
51759;BME280;66684;47.568;18.734;2023-03-24T06:42:12;99089.75;;;11.17;86.40
51759;BME280;66684;47.568;18.734;2023-03-24T06:44:37;99081.94;;;11.14;86.40
51759;BME280;66684;47.568;18.734;2023-03-24T06:47:04;99075.38;;;11.25;85.15
51759;BME280;66684;47.568;18.734;2023-03-24T06:49:30;99078.13;;;11.31;84.37
51759;BME280;66684;47.568;18.734;2023-03-24T06:51:56;99081.34;;;11.54;84.33
51759;BME280;66684;47.568;18.734;2023-03-24T06:54:22;99095.38;;;11.62;85.26
51759;BME280;66684;47.568;18.734;2023-03-24T06:56:47;99095.47;;;11.66;84.36
51759;BME280;66684;47.568;18.734;2023-03-24T06:59:13;99092.81;;;11.94;82.40
51759;BME280;66684;47.568;18.734;2023-03-24T07:01:42;99087.19;;;12.09;80.82
51759;BME280;66684;47.568;18.734;2023-03-24T07:04:08;99077.31;;;12.27;80.67
51759;BME280;66684;47.568;18.734;2023-03-24T07:06:34;99077.38;;;12.30;80.68
51759;BME280;66684;47.568;18.734;2023-03-24T07:09:00;99077.53;;;12.36;80.05
51759;BME280;66684;47.568;18.734;2023-03-24T07:11:26;99082.81;;;12.39;79.61
51759;BME280;66684;47.568;18.734;2023-03-24T07:13:52;99074.41;;;12.50;77.72
51759;BME280;66684;47.568;18.734;2023-03-24T07:16:18;99071.09;;;12.57;78.06
51759;BME280;66684;47.568;18.734;2023-03-24T07:18:44;99068.06;;;12.73;77.21
51759;BME280;66684;47.568;18.734;2023-03-24T07:21:10;99071.13;;;12.94;74.85
51759;BME280;66684;47.568;18.734;2023-03-24T07:23:36;99067.06;;;13.06;75.46
51759;BME280;66684;47.568;18.734;2023-03-24T07:26:02;99067.19;;;13.12;75.62
51759;BME280;66684;47.568;18.734;2023-03-24T07:28:28;99063.84;;;13.17;74.83
51759;BME280;66684;47.568;18.734;2023-03-24T07:30:54;99058.00;;;13.26;74.20
51759;BME280;66684;47.568;18.734;2023-03-24T07:33:20;99051.91;;;13.24;73.44
51759;BME280;66684;47.568;18.734;2023-03-24T07:35:46;99056.75;;;13.48;70.60
51759;BME280;66684;47.568;18.734;2023-03-24T07:38:12;99053.41;;;13.54;72.08
51759;BME280;66684;47.568;18.734;2023-03-24T07:40:38;99061.53;;;13.72;71.65
51759;BME280;66684;47.568;18.734;2023-03-24T07:43:04;99057.34;;;13.79;71.00
51759;BME280;66684;47.568;18.734;2023-03-24T07:45:31;99064.66;;;13.99;70.27
51759;BME280;66684;47.568;18.734;2023-03-24T07:47:57;99067.88;;;13.88;70.15
51759;BME280;66684;47.568;18.734;2023-03-24T07:50:29;99056.69;;;13.90;70.55
51759;BME280;66684;47.568;18.734;2023-03-24T07:52:56;99060.06;;;13.86;71.30
51759;BME280;66684;47.568;18.734;2023-03-24T07:55:22;99049.03;;;13.96;69.41
51759;BME280;66684;47.568;18.734;2023-03-24T07:57:49;99047.63;;;14.17;69.62
51759;BME280;66684;47.568;18.734;2023-03-24T08:00:16;99050.38;;;14.26;71.13
51759;BME280;66684;47.568;18.734;2023-03-24T08:02:43;99040.25;;;14.41;70.89
51759;BME280;66684;47.568;18.734;2023-03-24T08:05:11;99042.75;;;14.34;68.61
51759;BME280;66684;47.568;18.734;2023-03-24T08:07:43;99036.81;;;14.44;69.08
51759;BME280;66684;47.568;18.734;2023-03-24T08:10:13;99031.72;;;14.48;67.30
51759;BME280;66684;47.568;18.734;2023-03-24T08:12:40;99027.53;;;14.58;67.48
51759;BME280;66684;47.568;18.734;2023-03-24T08:15:07;99032.00;;;14.67;67.46
51759;BME280;66684;47.568;18.734;2023-03-24T08:17:34;99021.56;;;14.64;64.72
51759;BME280;66684;47.568;18.734;2023-03-24T08:20:02;99021.44;;;14.54;66.66
51759;BME280;66684;47.568;18.734;2023-03-24T08:22:33;99021.72;;;14.73;67.02
51759;BME280;66684;47.568;18.734;2023-03-24T08:24:58;99020.66;;;14.60;65.07
51759;BME280;66684;47.568;18.734;2023-03-24T08:27:25;99024.38;;;14.77;65.24
51759;BME280;66684;47.568;18.734;2023-03-24T08:29:50;99024.41;;;14.79;65.56
51759;BME280;66684;47.568;18.734;2023-03-24T08:32:16;99018.37;;;14.83;65.45
51759;BME280;66684;47.568;18.734;2023-03-24T08:34:42;99023.44;;;14.74;65.44
51759;BME280;66684;47.568;18.734;2023-03-24T08:37:08;99011.13;;;14.61;65.81
51759;BME280;66684;47.568;18.734;2023-03-24T08:39:34;99012.06;;;14.66;65.47
51759;BME280;66684;47.568;18.734;2023-03-24T08:42:01;99012.09;;;14.67;65.46
51759;BME280;66684;47.568;18.734;2023-03-24T08:44:27;99012.88;;;14.62;65.38
51759;BME280;66684;47.568;18.734;2023-03-24T08:46:53;99006.12;;;14.76;65.33
51759;BME280;66684;47.568;18.734;2023-03-24T08:49:19;99002.81;;;14.84;65.00
51759;BME280;66684;47.568;18.734;2023-03-24T08:51:45;98995.97;;;14.94;65.07
51759;BME280;66684;47.568;18.734;2023-03-24T08:54:12;98996.13;;;15.03;64.91
51759;BME280;66684;47.568;18.734;2023-03-24T08:56:38;99000.47;;;15.04;65.15
51759;BME280;66684;47.568;18.734;2023-03-24T08:59:05;99008.38;;;15.14;63.65
51759;BME280;66684;47.568;18.734;2023-03-24T09:01:32;98994.56;;;15.18;64.41
51759;BME280;66684;47.568;18.734;2023-03-24T09:04:01;98992.91;;;15.26;65.08
51759;BME280;66684;47.568;18.734;2023-03-24T09:06:27;98998.09;;;15.21;62.27
51759;BME280;66684;47.568;18.734;2023-03-24T09:08:53;98999.03;;;15.29;65.53
51759;BME280;66684;47.568;18.734;2023-03-24T09:11:20;98997.47;;;15.44;62.74
51759;BME280;66684;47.568;18.734;2023-03-24T09:13:47;98999.19;;;15.42;61.40
51759;BME280;66684;47.568;18.734;2023-03-24T09:16:14;98994.06;;;15.49;61.24
51759;BME280;66684;47.568;18.734;2023-03-24T09:18:40;98994.91;;;15.48;62.73
51759;BME280;66684;47.568;18.734;2023-03-24T09:21:07;98990.72;;;15.61;61.90
51759;BME280;66684;47.568;18.734;2023-03-24T09:23:33;98997.03;;;15.83;62.90
51759;BME280;66684;47.568;18.734;2023-03-24T09:26:00;98984.91;;;15.85;61.16
51759;BME280;66684;47.568;18.734;2023-03-24T09:28:27;98981.50;;;15.95;62.90
51759;BME280;66684;47.568;18.734;2023-03-24T09:30:58;98985.78;;;15.85;60.02
51759;BME280;66684;47.568;18.734;2023-03-24T09:33:25;98978.09;;;15.99;61.16
51759;BME280;66684;47.568;18.734;2023-03-24T09:35:58;98973.75;;;16.03;61.19
51759;BME280;66684;47.568;18.734;2023-03-24T09:38:25;98965.13;;;16.05;60.48
51759;BME280;66684;47.568;18.734;2023-03-24T09:40:57;98970.56;;;16.40;61.70
51759;BME280;66684;47.568;18.734;2023-03-24T09:43:33;98971.47;;;16.44;61.05
51759;BME280;66684;47.568;18.734;2023-03-24T09:46:03;98971.47;;;16.44;58.49
51759;BME280;66684;47.568;18.734;2023-03-24T09:48:46;98976.69;;;16.41;58.38
51759;BME280;66684;47.568;18.734;2023-03-24T09:51:21;98981.81;;;16.32;59.41
51759;BME280;66684;47.568;18.734;2023-03-24T09:56:22;98968.00;;;16.42;58.12
51759;BME280;66684;47.568;18.734;2023-03-24T09:58:53;98955.84;;;16.41;58.92
51759;BME280;66684;47.568;18.734;2023-03-24T10:01:24;98951.53;;;16.52;59.15
51759;BME280;66684;47.568;18.734;2023-03-24T10:03:54;98955.91;;;16.53;59.15
51759;BME280;66684;47.568;18.734;2023-03-24T10:06:30;98943.66;;;16.46;58.34
51759;BME280;66684;47.568;18.734;2023-03-24T10:09:35;98942.78;;;16.41;58.42
51759;BME280;66684;47.568;18.734;2023-03-24T10:17:56;98927.13;;;16.38;61.41
51759;BME280;66684;47.568;18.734;2023-03-24T10:20:37;98930.56;;;16.34;60.84
51759;BME280;66684;47.568;18.734;2023-03-24T10:30:48;98923.16;;;17.07;61.20
51759;BME280;66684;47.568;18.734;2023-03-24T10:33:16;98924.94;;;17.26;59.95
51759;BME280;66684;47.568;18.734;2023-03-24T10:35:50;98928.44;;;17.25;59.19
51759;BME280;66684;47.568;18.734;2023-03-24T10:38:21;98925.87;;;17.48;58.98
51759;BME280;66684;47.568;18.734;2023-03-24T10:40:48;98927.66;;;17.72;57.82
51759;BME280;66684;47.568;18.734;2023-03-24T10:43:15;98923.34;;;17.81;56.55
51759;BME280;66684;47.568;18.734;2023-03-24T10:45:48;98926.84;;;17.86;57.15
51759;BME280;66684;47.568;18.734;2023-03-24T10:48:42;98911.16;;;17.92;55.64
51759;BME280;66684;47.568;18.734;2023-03-24T10:51:17;98913.75;;;18.18;53.55
51759;BME280;66684;47.568;18.734;2023-03-24T10:53:46;98903.25;;;18.36;53.46
51759;BME280;66684;47.568;18.734;2023-03-24T10:56:17;98907.56;;;18.68;51.96
51759;BME280;66684;47.568;18.734;2023-03-24T10:58:45;98902.31;;;18.60;51.04
51759;BME280;66684;47.568;18.734;2023-03-24T11:01:38;98904.94;;;18.71;51.93
51759;BME280;66684;47.568;18.734;2023-03-24T11:04:04;98898.81;;;18.76;50.12
51759;BME280;66684;47.568;18.734;2023-03-24T11:06:32;98895.22;;;19.05;50.15
51759;BME280;66684;47.568;18.734;2023-03-24T11:11:40;98891.62;;;19.24;50.63
51759;BME280;66684;47.568;18.734;2023-03-24T11:14:18;98882.84;;;19.30;51.30
51759;BME280;66684;47.568;18.734;2023-03-24T11:16:47;98880.97;;;19.46;50.08
51759;BME280;66684;47.568;18.734;2023-03-24T11:19:19;98880.94;;;19.58;48.97
51759;BME280;66684;47.568;18.734;2023-03-24T11:21:45;98871.22;;;19.74;46.68
51759;BME280;66684;47.568;18.734;2023-03-24T11:24:15;98854.38;;;19.98;46.08
51759;BME280;66684;47.568;18.734;2023-03-24T11:26:51;98859.56;;;20.07;44.91
51759;BME280;66684;47.568;18.734;2023-03-24T11:29:20;98864.91;;;19.94;44.85
51759;BME280;66684;47.568;18.734;2023-03-24T11:31:56;98849.13;;;19.98;45.17
51759;BME280;66684;47.568;18.734;2023-03-24T11:34:25;98839.34;;;20.16;44.77
51759;BME280;66684;47.568;18.734;2023-03-24T11:37:10;98839.16;;;20.33;43.09
51759;BME280;66684;47.568;18.734;2023-03-24T11:39:37;98835.00;;;20.11;43.14
51759;BME280;66684;47.568;18.734;2023-03-24T11:42:16;98837.66;;;20.12;43.14
51759;BME280;66684;47.568;18.734;2023-03-24T11:44:45;98834.75;;;20.38;43.42
51759;BME280;66684;47.568;18.734;2023-03-24T11:49:56;98806.75;;;20.37;42.13
51759;BME280;66684;47.568;18.734;2023-03-24T11:52:33;98807.47;;;20.53;44.78
51759;BME280;66684;47.568;18.734;2023-03-24T11:55:03;98804.63;;;20.70;42.27
51759;BME280;66684;47.568;18.734;2023-03-24T12:00:25;98787.53;;;21.03;40.59
51759;BME280;66684;47.568;18.734;2023-03-24T12:05:59;98790.53;;;20.77;40.67
51759;BME280;66684;47.568;18.734;2023-03-24T12:08:46;98776.41;;;20.87;40.69
51759;BME280;66684;47.568;18.734;2023-03-24T12:13:47;98774.16;;;21.20;40.70
51759;BME280;66684;47.568;18.734;2023-03-24T12:16:24;98774.03;;;21.29;40.59
51759;BME280;66684;47.568;18.734;2023-03-24T12:19:16;98781.53;;;21.53;40.39
51759;BME280;66684;47.568;18.734;2023-03-24T12:22:12;98771.09;;;21.47;39.05
51759;BME280;66684;47.568;18.734;2023-03-24T12:32:49;98764.28;;;21.37;38.79
51759;BME280;66684;47.568;18.734;2023-03-24T12:57:46;98748.25;;;20.95;39.37
51759;BME280;66684;47.568;18.734;2023-03-24T13:00:21;98736.88;;;20.95;39.72
51759;BME280;66684;47.568;18.734;2023-03-24T13:02:55;98732.34;;;21.05;39.64
51759;BME280;66684;47.568;18.734;2023-03-24T13:05:44;98732.25;;;21.11;38.70
51759;BME280;66684;47.568;18.734;2023-03-24T13:08:19;98724.56;;;20.98;39.46
51759;BME280;66684;47.568;18.734;2023-03-24T13:10:49;98736.37;;;21.27;39.63
51759;BME280;66684;47.568;18.734;2023-03-24T13:13:45;98732.78;;;21.34;38.85
51759;BME280;66684;47.568;18.734;2023-03-24T13:16:18;98721.03;;;21.57;38.29
51759;BME280;66684;47.568;18.734;2023-03-24T13:18:54;98718.78;;;21.83;38.85
51759;BME280;66684;47.568;18.734;2023-03-24T13:21:22;98716.47;;;22.11;37.89
51759;BME280;66684;47.568;18.734;2023-03-24T13:24:01;98710.47;;;22.03;38.55
51759;BME280;66684;47.568;18.734;2023-03-24T13:32:19;98709.12;;;21.34;38.27
51759;BME280;66684;47.568;18.734;2023-03-24T13:37:45;98702.69;;;21.52;37.76
51759;BME280;66684;47.568;18.734;2023-03-24T13:43:22;98685.88;;;21.61;38.55
51759;BME280;66684;47.568;18.734;2023-03-24T13:45:51;98685.84;;;21.64;37.85
51759;BME280;66684;47.568;18.734;2023-03-24T13:50:58;98695.88;;;21.40;37.87
51759;BME280;66684;47.568;18.734;2023-03-24T13:53:42;98684.25;;;21.53;38.28
51759;BME280;66684;47.568;18.734;2023-03-24T13:56:10;98680.22;;;21.82;37.85
51759;BME280;66684;47.568;18.734;2023-03-24T14:01:30;98673.41;;;21.21;38.08
51759;BME280;66684;47.568;18.734;2023-03-24T14:06:58;98675.87;;;20.78;38.33
51759;BME280;66684;47.568;18.734;2023-03-24T14:14:29;98662.91;;;20.67;39.54
51759;BME280;66684;47.568;18.734;2023-03-24T14:22:26;98652.37;;;20.70;38.87
51759;BME280;66684;47.568;18.734;2023-03-24T14:25:02;98654.91;;;20.76;39.10
51759;BME280;66684;47.568;18.734;2023-03-24T14:27:35;98654.47;;;20.46;39.82
51759;BME280;66684;47.568;18.734;2023-03-24T14:32:48;98661.25;;;20.63;40.43
51759;BME280;66684;47.568;18.734;2023-03-24T14:35:29;98656.00;;;20.63;40.30
51759;BME280;66684;47.568;18.734;2023-03-24T14:38:03;98650.59;;;20.72;39.56
51759;BME280;66684;47.568;18.734;2023-03-24T14:40:35;98654.25;;;20.62;40.24
51759;BME280;66684;47.568;18.734;2023-03-24T14:43:23;98661.31;;;20.57;40.40
51759;BME280;66684;47.568;18.734;2023-03-24T14:48:28;98638.78;;;20.40;40.96
51759;BME280;66684;47.568;18.734;2023-03-24T14:50:59;98641.34;;;20.46;40.41
51759;BME280;66684;47.568;18.734;2023-03-24T14:53:28;98635.34;;;20.35;40.41
51759;BME280;66684;47.568;18.734;2023-03-24T14:55:55;98635.44;;;20.29;40.70
51759;BME280;66684;47.568;18.734;2023-03-24T14:58:48;98631.81;;;20.36;41.01
51759;BME280;66684;47.568;18.734;2023-03-24T15:01:16;98626.72;;;20.27;41.33
51759;BME280;66684;47.568;18.734;2023-03-24T15:03:56;98630.00;;;20.41;41.75
51759;BME280;66684;47.568;18.734;2023-03-24T15:06:25;98627.59;;;20.28;41.94
51759;BME280;66684;47.568;18.734;2023-03-24T15:08:53;98628.44;;;20.28;41.15
51759;BME280;66684;47.568;18.734;2023-03-24T15:11:27;98628.59;;;20.19;41.28
51759;BME280;66684;47.568;18.734;2023-03-24T15:13:55;98619.75;;;20.26;40.93
51759;BME280;66684;47.568;18.734;2023-03-24T15:16:24;98613.72;;;20.19;41.37
51759;BME280;66684;47.568;18.734;2023-03-24T15:21:37;98611.94;;;20.21;41.69
51759;BME280;66684;47.568;18.734;2023-03-24T15:24:27;98613.72;;;20.19;42.04
51759;BME280;66684;47.568;18.734;2023-03-24T15:27:23;98615.47;;;20.17;42.33
51759;BME280;66684;47.568;18.734;2023-03-24T15:29:56;98612.84;;;20.19;41.77
51759;BME280;66684;47.568;18.734;2023-03-24T15:32:23;98605.06;;;20.13;41.96
51759;BME280;66684;47.568;18.734;2023-03-24T15:34:57;98605.09;;;20.10;41.89
51759;BME280;66684;47.568;18.734;2023-03-24T15:39:58;98609.66;;;19.97;41.89
51759;BME280;66684;47.568;18.734;2023-03-24T15:42:25;98603.66;;;19.87;41.83
51759;BME280;66684;47.568;18.734;2023-03-24T15:44:52;98604.47;;;19.92;42.26
51759;BME280;66684;47.568;18.734;2023-03-24T15:47:24;98604.59;;;19.83;43.20